Time;durP1;ratioP1;P1;durP2;ratioP2;P2;SDS_P1;SDS_P2;PMS_P1;PMS_P2;Temp;Humidity;BMP_temperature;BMP_pressure;BME280_temperature;BME280_humidity;BME280_pressure;Samples;Min_cycle;Max_cycle;Signal;HPM_P1;HPM_P2
2022/03/31 00:00:46;;;;;;;87.20;50.75;;;11.90;99.90;;;;;;5069714;28;20072;-76
2022/03/31 00:03:16;;;;;;;92.35;45.72;;;11.90;99.90;;;;;;5070982;28;20045;-76
2022/03/31 00:05:44;;;;;;;76.43;41.90;;;11.90;99.90;;;;;;5067929;28;20064;-76
2022/03/31 00:08:13;;;;;;;80.15;44.03;;;11.90;99.90;;;;;;5062702;28;20053;-76
2022/03/31 00:10:42;;;;;;;95.25;53.97;;;11.90;99.90;;;;;;5054847;28;20045;-76
2022/03/31 00:13:12;;;;;;;86.32;46.60;;;11.90;99.90;;;;;;5056733;28;20052;-77
2022/03/31 00:15:40;;;;;;;86.45;50.55;;;11.90;99.90;;;;;;5056257;28;20077;-77
2022/03/31 00:18:10;;;;;;;85.60;46.83;;;11.80;99.90;;;;;;5055789;28;20051;-78
2022/03/31 00:20:38;;;;;;;78.85;43.10;;;11.70;99.90;;;;;;5072609;28;20057;-76
2022/03/31 00:23:06;;;;;;;70.20;39.22;;;11.70;99.90;;;;;;5077036;28;20051;-77
2022/03/31 00:25:33;;;;;;;69.72;36.63;;;11.70;99.90;;;;;;5063549;28;20053;-77
2022/03/31 00:28:03;;;;;;;64.20;36.50;;;11.70;99.90;;;;;;5074091;28;20048;-77
2022/03/31 00:30:32;;;;;;;75.93;41.75;;;11.80;99.90;;;;;;5067027;28;20044;-77
2022/03/31 00:33:00;;;;;;;66.90;37.63;;;11.80;99.90;;;;;;5074835;28;20091;-76
2022/03/31 00:35:29;;;;;;;87.85;48.05;;;11.80;99.90;;;;;;5076186;28;20041;-77
2022/03/31 00:37:57;;;;;;;68.88;39.80;;;11.80;99.90;;;;;;5074570;28;20054;-78
2022/03/31 00:40:25;;;;;;;69.50;40.95;;;11.80;99.90;;;;;;5075727;28;20057;-77
2022/03/31 00:42:55;;;;;;;62.63;37.50;;;11.80;99.90;;;;;;5074888;28;20044;-78
2022/03/31 00:45:24;;;;;;;62.80;36.08;;;11.80;99.90;;;;;;5066020;28;20056;-78
2022/03/31 00:47:52;;;;;;;68.90;38.20;;;11.80;99.90;;;;;;5073170;28;20147;-78
2022/03/31 00:50:20;;;;;;;62.67;31.88;;;11.80;99.90;;;;;;5075018;28;20049;-77
2022/03/31 00:52:49;;;;;;;64.68;33.15;;;11.80;99.90;;;;;;5074061;28;20048;-77
2022/03/31 00:55:19;;;;;;;57.67;32.42;;;11.80;99.90;;;;;;5074805;28;20052;-77
2022/03/31 00:57:48;;;;;;;60.10;33.95;;;11.80;99.90;;;;;;5075108;28;20075;-78
2022/03/31 01:00:16;;;;;;;67.70;38.72;;;11.70;99.90;;;;;;5074788;28;20499;-77
2022/03/31 01:02:45;;;;;;;55.78;32.72;;;11.70;1.00;;;;;;5074509;28;20052;-77
2022/03/31 01:05:14;;;;;;;56.28;28.95;;;11.60;1.00;;;;;;5073650;28;20056;-78
2022/03/31 01:07:42;;;;;;;51.47;28.13;;;11.60;1.00;;;;;;5070576;28;20392;-77
2022/03/31 01:10:13;;;;;;;56.55;29.25;;;11.50;1.00;;;;;;5074890;28;20044;-77
2022/03/31 01:12:42;;;;;;;53.20;30.45;;;11.40;1.00;;;;;;5075589;28;20423;-77
2022/03/31 01:15:12;;;;;;;54.88;31.02;;;11.30;1.00;;;;;;5073680;28;20071;-77
2022/03/31 01:17:40;;;;;;;58.55;32.17;;;11.30;1.00;;;;;;5073670;28;20385;-77
2022/03/31 01:20:12;;;;;;;58.80;32.25;;;11.30;1.00;;;;;;5074274;28;20060;-77
2022/03/31 01:22:40;;;;;;;58.95;33.10;;;11.20;99.90;;;;;;5073911;28;20053;-77
2022/03/31 01:25:10;;;;;;;66.63;34.25;;;11.20;99.90;;;;;;5070090;28;20048;-77
2022/03/31 01:27:40;;;;;;;58.75;34.30;;;11.10;99.90;;;;;;5076229;28;20040;-78
2022/03/31 01:30:09;;;;;;;61.92;35.20;;;11.10;1.00;;;;;;5069609;28;20049;-77
2022/03/31 01:32:37;;;;;;;60.63;30.92;;;11.10;1.00;;;;;;5073638;28;20048;-77
2022/03/31 01:35:06;;;;;;;39.38;19.27;;;11.10;1.00;;;;;;5074204;28;20040;-77
2022/03/31 01:37:33;;;;;;;31.50;15.88;;;11.00;1.00;;;;;;5073202;28;20051;-77
2022/03/31 01:40:01;;;;;;;34.40;19.83;;;11.00;1.00;;;;;;5073649;28;20048;-77
2022/03/31 01:42:30;;;;;;;47.97;26.40;;;11.00;1.00;;;;;;5073920;28;20041;-77
2022/03/31 01:44:58;;;;;;;49.38;27.70;;;11.00;1.00;;;;;;5074236;28;20054;-77
2022/03/31 01:47:26;;;;;;;54.70;29.02;;;11.00;1.00;;;;;;5073841;28;20113;-77
2022/03/31 01:49:53;;;;;;;45.67;26.25;;;11.10;1.00;;;;;;5073445;28;20049;-77
2022/03/31 01:52:22;;;;;;;45.83;26.45;;;11.10;67.10;;;;;;5077309;28;20048;-77
2022/03/31 01:54:49;;;;;;;43.60;23.83;;;11.10;99.90;;;;;;5078813;28;20048;-78
2022/03/31 01:57:17;;;;;;;50.30;24.42;;;11.00;99.90;;;;;;5074240;28;20048;-78
2022/03/31 01:59:46;;;;;;;43.40;22.58;;;11.00;99.90;;;;;;5073965;28;20036;-77
2022/03/31 02:02:14;;;;;;;44.63;25.23;;;11.00;1.00;;;;;;5072991;28;20037;-78
2022/03/31 02:04:42;;;;;;;47.45;25.73;;;10.90;99.90;;;;;;5074051;28;20044;-78
2022/03/31 02:07:11;;;;;;;45.00;26.77;;;10.90;99.90;;;;;;5062502;28;20029;-78
2022/03/31 02:09:38;;;;;;;48.20;26.75;;;10.90;1.00;;;;;;5053526;28;20500;-77
2022/03/31 02:12:07;;;;;;;48.97;26.13;;;10.90;1.00;;;;;;5053883;28;20051;-77
2022/03/31 02:14:37;;;;;;;46.45;24.88;;;10.90;1.00;;;;;;5053438;28;20052;-77
2022/03/31 02:17:07;;;;;;;42.17;21.55;;;10.90;1.00;;;;;;5053417;28;20492;-77
2022/03/31 02:19:35;;;;;;;36.90;20.92;;;10.80;1.00;;;;;;5056755;28;20044;-77
2022/03/31 02:22:03;;;;;;;33.65;21.67;;;10.80;1.00;;;;;;5073622;28;20041;-77
2022/03/31 02:24:30;;;;;;;36.92;20.25;;;10.80;1.00;;;;;;5075730;28;20052;-77
2022/03/31 02:26:59;;;;;;;39.60;25.63;;;10.80;1.00;;;;;;5075054;28;20044;-77
2022/03/31 02:29:26;;;;;;;32.90;21.33;;;10.70;1.00;;;;;;5071646;28;20495;-77
2022/03/31 02:31:54;;;;;;;32.45;19.90;;;10.70;99.90;;;;;;5070904;28;20082;-77
2022/03/31 02:34:23;;;;;;;33.38;18.75;;;10.70;99.90;;;;;;5071844;28;20127;-77
2022/03/31 02:36:51;;;;;;;28.60;16.00;;;10.70;99.90;;;;;;5072216;28;20407;-76
2022/03/31 02:39:18;;;;;;;28.08;16.70;;;10.80;1.00;;;;;;5071985;28;20051;-77
2022/03/31 02:41:47;;;;;;;27.23;16.73;;;10.80;99.90;;;;;;5072305;28;20364;-76
2022/03/31 02:44:15;;;;;;;33.35;17.15;;;11.00;99.90;;;;;;5072035;28;20059;-77
2022/03/31 02:46:43;;;;;;;27.80;16.77;;;11.00;99.90;;;;;;5056863;28;20137;-76
2022/03/31 02:49:11;;;;;;;32.42;17.83;;;11.00;99.90;;;;;;5053576;28;20045;-76
2022/03/31 02:51:40;;;;;;;27.65;15.18;;;11.00;99.90;;;;;;5053180;28;20516;-77
2022/03/31 02:56:52;;;;;;;24.38;16.50;;;10.90;1.00;;;;;;5052194;28;20041;-77
2022/03/31 02:59:20;;;;;;;27.08;16.63;;;10.80;99.90;;;;;;5051771;28;20088;-77
2022/03/31 03:01:47;;;;;;;27.70;14.80;;;10.80;99.90;;;;;;5053322;28;20045;-76
2022/03/31 03:04:15;;;;;;;27.33;13.98;;;10.70;1.00;;;;;;5052876;28;20045;-77
2022/03/31 03:06:44;;;;;;;25.88;12.80;;;10.80;99.90;;;;;;5051830;28;20068;-76
2022/03/31 03:09:12;;;;;;;23.23;11.95;;;10.80;99.90;;;;;;5051967;28;20059;-77
2022/03/31 03:11:39;;;;;;;27.58;14.77;;;10.80;1.00;;;;;;5055296;28;20067;-77
2022/03/31 03:14:09;;;;;;;24.52;12.23;;;10.80;1.00;;;;;;5055997;28;20140;-77
2022/03/31 03:16:36;;;;;;;22.38;10.95;;;10.80;1.00;;;;;;5057416;28;20511;-77
2022/03/31 03:19:04;;;;;;;18.98;11.75;;;10.80;1.00;;;;;;5056770;28;20047;-77
2022/03/31 03:21:32;;;;;;;23.15;12.88;;;10.80;1.00;;;;;;5056979;28;20077;-76
2022/03/31 03:24:02;;;;;;;28.48;16.80;;;10.70;1.00;;;;;;5071149;28;20044;-76
2022/03/31 03:26:29;;;;;;;35.90;22.55;;;10.70;1.00;;;;;;5077653;28;20071;-76
2022/03/31 03:28:57;;;;;;;36.85;24.42;;;10.70;1.00;;;;;;5076672;28;20079;-76
2022/03/31 03:31:24;;;;;;;41.75;25.05;;;10.60;9.40;;;;;;5076957;28;20123;-76
2022/03/31 03:33:52;;;;;;;42.78;27.23;;;10.70;59.20;;;;;;5075381;28;20052;-76
2022/03/31 03:36:19;;;;;;;34.17;24.83;;;10.60;1.00;;;;;;5076846;28;20041;-76
2022/03/31 03:38:47;;;;;;;35.20;24.15;;;10.60;1.00;;;;;;5075485;28;20052;-77
2022/03/31 03:41:16;;;;;;;35.78;21.70;;;10.50;1.00;;;;;;5076493;28;20049;-76
2022/03/31 03:43:44;;;;;;;26.98;16.15;;;10.40;1.00;;;;;;5076038;28;20052;-76
2022/03/31 03:46:12;;;;;;;24.98;14.98;;;10.30;1.00;;;;;;5076673;28;20047;-76
2022/03/31 03:48:40;;;;;;;27.33;18.00;;;10.30;1.00;;;;;;5076313;28;20044;-76
2022/03/31 03:51:09;;;;;;;43.08;24.75;;;10.30;1.00;;;;;;5076442;28;20041;-76
2022/03/31 03:53:36;;;;;;;30.30;18.00;;;10.40;99.90;;;;;;5074958;28;20128;-76
2022/03/31 03:56:04;;;;;;;31.33;18.75;;;10.40;1.00;;;;;;5074983;28;20049;-77
2022/03/31 03:58:33;;;;;;;24.67;15.10;;;10.40;99.90;;;;;;5076208;28;20095;-76
2022/03/31 04:01:01;;;;;;;34.13;22.70;;;10.40;1.00;;;;;;5076181;28;20068;-77
2022/03/31 04:03:28;;;;;;;42.67;24.77;;;10.40;1.00;;;;;;5075743;28;20056;-77
2022/03/31 04:05:56;;;;;;;29.73;17.83;;;10.40;1.00;;;;;;5076273;28;20040;-76
2022/03/31 04:08:24;;;;;;;32.03;20.02;;;10.40;1.00;;;;;;5060905;28;20047;-76
2022/03/31 04:10:51;;;;;;;24.50;16.27;;;10.40;1.00;;;;;;5068772;28;20397;-76
2022/03/31 04:13:19;;;;;;;28.13;15.93;;;10.40;1.00;;;;;;5068582;28;20054;-77
2022/03/31 04:15:48;;;;;;;23.60;12.02;;;10.30;99.90;;;;;;5069766;28;20124;-76
2022/03/31 04:18:15;;;;;;;20.67;11.13;;;10.30;1.00;;;;;;5073869;28;20041;-75
2022/03/31 04:20:43;;;;;;;24.23;12.25;;;10.30;99.90;;;;;;5077223;28;20046;-76
2022/03/31 04:23:11;;;;;;;23.02;14.43;;;10.30;99.90;;;;;;5073353;28;20072;-76
2022/03/31 04:25:38;;;;;;;19.45;12.13;;;10.30;1.00;;;;;;5074288;28;20053;-76
2022/03/31 04:28:07;;;;;;;20.27;12.20;;;10.30;1.00;;;;;;5075839;28;20045;-76
2022/03/31 04:30:35;;;;;;;20.00;14.00;;;10.30;1.00;;;;;;5076060;28;20131;-77
2022/03/31 04:33:04;;;;;;;25.38;15.43;;;10.40;29.10;;;;;;5076033;28;20072;-77
2022/03/31 04:35:31;;;;;;;25.00;15.63;;;10.40;1.00;;;;;;5073631;28;20037;-76
2022/03/31 04:37:59;;;;;;;28.70;17.08;;;10.50;1.00;;;;;;5076104;28;20048;-77
2022/03/31 04:40:26;;;;;;;33.88;19.52;;;10.50;99.90;;;;;;5075939;28;20052;-76
2022/03/31 04:42:54;;;;;;;59.30;31.05;;;10.50;99.90;;;;;;5075277;28;20400;-76
2022/03/31 04:45:22;;;;;;;81.72;40.42;;;10.60;1.00;;;;;;5076010;28;20080;-76
2022/03/31 04:47:49;;;;;;;53.58;27.80;;;10.60;1.00;;;;;;5070090;28;20143;-76
2022/03/31 04:50:18;;;;;;;66.55;33.60;;;10.60;1.00;;;;;;5075098;28;20526;-77
2022/03/31 04:52:45;;;;;;;55.55;30.58;;;10.50;93.20;;;;;;5074259;28;20054;-77
2022/03/31 04:55:13;;;;;;;59.25;31.65;;;10.40;1.00;;;;;;5075576;28;20055;-77
2022/03/31 04:57:42;;;;;;;51.63;27.98;;;10.50;1.00;;;;;;5072676;28;20442;-77
2022/03/31 05:00:10;;;;;;;42.30;24.30;;;10.50;95.00;;;;;;5074747;28;20065;-77
2022/03/31 05:02:38;;;;;;;57.78;31.33;;;10.50;99.90;;;;;;5073346;28;20079;-77
2022/03/31 05:05:07;;;;;;;79.35;42.95;;;10.50;30.40;;;;;;5054550;28;20067;-78
2022/03/31 05:07:37;;;;;;;80.50;40.70;;;10.50;99.90;;;;;;5054351;28;20049;-77
2022/03/31 05:10:05;;;;;;;81.30;39.63;;;10.50;1.00;;;;;;5054842;28;20415;-77
2022/03/31 05:12:33;;;;;;;82.88;37.50;;;10.60;99.90;;;;;;5054010;28;20044;-77
2022/03/31 05:15:00;;;;;;;66.43;29.85;;;10.70;1.00;;;;;;5053253;28;20051;-77
2022/03/31 05:17:33;;;;;;;73.78;32.13;;;10.80;99.90;;;;;;5054939;28;20439;-77
2022/03/31 05:20:04;;;;;;;78.10;30.67;;;10.90;1.00;;;;;;5054025;28;20044;-77
2022/03/31 05:22:33;;;;;;;36.13;18.02;;;10.90;1.00;;;;;;5054261;28;20041;-77
2022/03/31 05:25:02;;;;;;;27.45;14.88;;;11.10;1.00;;;;;;5069453;28;20040;-77
2022/03/31 05:27:30;;;;;;;29.83;16.13;;;11.30;1.00;;;;;;5074652;28;20484;-78
2022/03/31 05:29:58;;;;;;;31.58;18.98;;;11.40;99.90;;;;;;5074422;28;20055;-77
2022/03/31 05:32:25;;;;;;;67.85;35.85;;;11.50;99.90;;;;;;5070044;28;20074;-78
2022/03/31 05:34:53;;;;;;;84.55;37.55;;;11.50;1.00;;;;;;5062728;28;20574;-76
2022/03/31 05:37:21;;;;;;;60.75;31.33;;;11.50;1.00;;;;;;5069186;28;20032;-78
2022/03/31 05:39:48;;;;;;;49.15;26.38;;;11.60;1.00;;;;;;5094344;22;20048;-76
2022/03/31 05:42:17;;;;;;;43.67;25.83;;;11.70;1.00;;;;;;5077845;28;20518;-76
2022/03/31 05:44:45;;;;;;;55.78;29.55;;;11.80;18.70;;;;;;5078689;28;20415;-75
2022/03/31 05:47:12;;;;;;;58.05;30.02;;;12.00;1.00;;;;;;5076699;28;20041;-76
2022/03/31 05:49:40;;;;;;;54.05;29.58;;;12.00;1.00;;;;;;5077875;28;20032;-76
2022/03/31 05:52:08;;;;;;;47.05;26.75;;;12.20;1.00;;;;;;5073701;28;20066;-77
2022/03/31 05:54:36;;;;;;;42.35;26.30;;;12.40;1.00;;;;;;5068304;28;20487;-76
2022/03/31 05:57:04;;;;;;;34.15;22.20;;;12.60;99.90;;;;;;5068122;28;20043;-76
2022/03/31 05:59:33;;;;;;;46.67;28.95;;;12.90;68.00;;;;;;5077127;28;20040;-76
2022/03/31 06:02:01;;;;;;;40.38;29.48;;;13.20;1.00;;;;;;5076163;28;20052;-75
2022/03/31 06:04:29;;;;;;;49.75;29.67;;;13.30;1.00;;;;;;5076673;28;20078;-76
2022/03/31 06:06:59;;;;;;;64.97;32.08;;;13.40;1.00;;;;;;5075876;28;20051;-77
2022/03/31 06:09:26;;;;;;;56.95;27.83;;;13.60;1.00;;;;;;5060581;28;20423;-76
2022/03/31 06:11:54;;;;;;;70.75;33.60;;;13.60;1.00;;;;;;5064780;28;20135;-75
2022/03/31 06:14:21;;;;;;;65.47;31.48;;;13.90;1.00;;;;;;5075730;28;20135;-75
2022/03/31 06:16:50;;;;;;;52.58;25.80;;;14.00;1.00;;;;;;5075396;28;20185;-75
2022/03/31 06:19:18;;;;;;;51.15;23.92;;;14.20;99.90;;;;;;5075658;28;20048;-76
2022/03/31 06:21:46;;;;;;;48.55;24.40;;;14.50;99.90;;;;;;5073808;28;20396;-76
2022/03/31 06:24:13;;;;;;;42.13;21.58;;;14.70;99.90;;;;;;5056991;28;20049;-76
2022/03/31 06:26:41;;;;;;;46.30;22.08;;;15.00;99.90;;;;;;5063222;28;20090;-76
2022/03/31 06:29:08;;;;;;;37.25;18.25;;;15.20;99.90;;;;;;5071107;28;20400;-77
2022/03/31 06:31:38;;;;;;;31.25;14.73;;;15.40;99.90;;;;;;5061598;28;20032;-77
2022/03/31 06:34:06;;;;;;;28.35;15.20;;;15.60;95.30;;;;;;5077442;28;20049;-77
2022/03/31 06:36:35;;;;;;;30.08;17.65;;;15.70;64.30;;;;;;5078229;28;20049;-78
2022/03/31 06:39:03;;;;;;;32.45;18.92;;;15.80;52.20;;;;;;5084781;28;20407;-75
2022/03/31 06:41:30;;;;;;;26.73;15.50;;;16.00;36.30;;;;;;5076628;28;20052;-77
2022/03/31 06:43:59;;;;;;;22.40;12.32;;;16.20;20.00;;;;;;5085538;28;20124;-76
2022/03/31 06:46:27;;;;;;;31.77;16.98;;;16.30;1.00;;;;;;5078732;28;20071;-76
2022/03/31 06:48:54;;;;;;;32.20;14.82;;;16.40;1.00;;;;;;5078095;28;20136;-77
2022/03/31 06:51:23;;;;;;;27.02;13.98;;;16.30;1.00;;;;;;5079218;28;20565;-74
2022/03/31 06:53:50;;;;;;;23.90;13.75;;;16.40;1.00;;;;;;5078046;28;20051;-77
2022/03/31 06:56:18;;;;;;;22.58;12.57;;;16.50;1.00;;;;;;5077403;28;20090;-75
2022/03/31 06:58:46;;;;;;;21.38;12.40;;;16.60;1.00;;;;;;5079433;28;20098;-75
2022/03/31 07:01:14;;;;;;;24.00;11.75;;;16.70;1.00;;;;;;5075698;28;20048;-77
2022/03/31 07:03:41;;;;;;;22.48;11.23;;;16.70;1.00;;;;;;5075079;28;20043;-76
2022/03/31 07:06:10;;;;;;;19.45;8.35;;;16.80;1.00;;;;;;5072674;28;20044;-77
2022/03/31 07:08:39;;;;;;;11.85;6.15;;;16.90;1.00;;;;;;5075164;28;20480;-77
2022/03/31 07:11:07;;;;;;;9.23;4.20;;;17.00;1.00;;;;;;5072539;28;20127;-76
2022/03/31 07:13:35;;;;;;;8.27;4.07;;;17.00;1.00;;;;;;5067499;28;20098;-78
2022/03/31 07:16:02;;;;;;;10.57;2.85;;;17.10;1.00;;;;;;5060606;28;20096;-75
2022/03/31 07:18:30;;;;;;;6.60;2.78;;;17.10;1.00;;;;;;5059283;28;20124;-75
2022/03/31 07:20:59;;;;;;;8.48;2.42;;;17.20;1.00;;;;;;5071120;28;20131;-76
2022/03/31 07:23:27;;;;;;;11.15;3.53;;;17.30;1.00;;;;;;5076285;28;20033;-75
2022/03/31 07:25:57;;;;;;;8.63;2.75;;;17.20;1.00;;;;;;5074447;28;20048;-77
2022/03/31 07:28:25;;;;;;;7.50;2.80;;;17.30;1.00;;;;;;5059043;28;20102;-76
2022/03/31 07:30:54;;;;;;;10.80;3.40;;;17.40;1.00;;;;;;5078897;28;20044;-76
2022/03/31 07:33:22;;;;;;;11.68;3.47;;;17.40;1.00;;;;;;5081065;28;20094;-76
2022/03/31 07:35:50;;;;;;;14.63;3.47;;;17.40;1.00;;;;;;5082350;28;20041;-76
2022/03/31 07:38:18;;;;;;;14.95;3.13;;;17.50;1.00;;;;;;5087668;28;20057;-75
2022/03/31 07:40:46;;;;;;;9.55;3.03;;;17.60;1.00;;;;;;5072616;28;20130;-75
2022/03/31 07:43:15;;;;;;;11.32;2.90;;;17.70;1.00;;;;;;5061652;28;20102;-76
2022/03/31 07:45:42;;;;;;;8.93;2.70;;;17.90;1.00;;;;;;5072379;28;20099;-76
2022/03/31 07:48:13;;;;;;;10.20;3.15;;;18.10;1.00;;;;;;5076401;28;20124;-75
2022/03/31 07:50:41;;;;;;;7.75;3.08;;;18.10;1.00;;;;;;5075030;28;20051;-75
2022/03/31 07:53:10;;;;;;;9.18;2.35;;;18.10;1.00;;;;;;5065422;28;20049;-77
2022/03/31 07:55:41;;;;;;;7.57;2.53;;;18.20;1.00;;;;;;5076334;28;20040;-77
2022/03/31 07:58:08;;;;;;;8.43;2.85;;;18.40;1.00;;;;;;5078177;28;20036;-75
2022/03/31 08:00:37;;;;;;;8.68;2.55;;;18.50;1.00;;;;;;5070789;28;20098;-76
2022/03/31 08:03:05;;;;;;;10.98;2.42;;;18.70;1.00;;;;;;5078189;28;20056;-75
2022/03/31 08:05:37;;;;;;;15.43;3.17;;;18.80;1.00;;;;;;5080471;28;20131;-77
2022/03/31 08:08:05;;;;;;;9.57;2.80;;;18.90;1.00;;;;;;5081175;28;20045;-78
2022/03/31 08:10:33;;;;;;;10.98;2.60;;;18.90;1.00;;;;;;5084849;28;20086;-78
2022/03/31 08:13:00;;;;;;;6.05;2.10;;;18.70;1.00;;;;;;5086270;28;20049;-78
2022/03/31 08:15:28;;;;;;;12.75;3.20;;;18.90;1.00;;;;;;5081986;28;20044;-77
2022/03/31 08:17:58;;;;;;;6.28;2.53;;;19.00;1.00;;;;;;5082852;28;20060;-81
2022/03/31 08:20:25;;;;;;;10.15;3.47;;;19.00;1.00;;;;;;5079859;28;20543;-77
2022/03/31 08:22:53;;;;;;;13.65;2.83;;;19.00;1.00;;;;;;5077248;28;20051;-77
2022/03/31 08:25:21;;;;;;;9.00;2.67;;;18.80;1.00;;;;;;5076821;28;20056;-76
2022/03/31 08:27:49;;;;;;;10.15;2.70;;;18.70;1.00;;;;;;5071668;28;20063;-76
2022/03/31 08:30:19;;;;;;;7.47;2.60;;;18.60;1.00;;;;;;5059795;28;20075;-77
2022/03/31 08:32:47;;;;;;;5.82;2.38;;;18.70;1.00;;;;;;5075148;28;20049;-76
2022/03/31 08:35:17;;;;;;;8.23;2.30;;;18.40;1.00;;;;;;5077527;28;20499;-76
2022/03/31 08:37:45;;;;;;;12.50;2.80;;;18.20;1.00;;;;;;5077566;28;20054;-78
2022/03/31 08:40:14;;;;;;;7.20;3.25;;;18.20;1.00;;;;;;5077082;28;20088;-78
2022/03/31 08:42:42;;;;;;;12.27;3.92;;;18.20;1.00;;;;;;5076240;28;20048;-77
2022/03/31 08:45:14;;;;;;;8.57;3.33;;;18.30;1.00;;;;;;5075578;28;20041;-78
2022/03/31 08:47:44;;;;;;;18.83;5.72;;;18.40;1.00;;;;;;5078005;28;20033;-78
2022/03/31 08:50:12;;;;;;;10.00;3.67;;;18.50;1.00;;;;;;5078635;28;20045;-78
2022/03/31 08:52:41;;;;;;;4.20;2.42;;;18.40;1.00;;;;;;5069564;28;20055;-79
2022/03/31 08:55:12;;;;;;;6.13;2.63;;;18.20;1.00;;;;;;5072907;28;20044;-77
2022/03/31 08:57:41;;;;;;;4.47;2.30;;;18.00;1.00;;;;;;5079598;28;20040;-76
2022/03/31 09:00:10;;;;;;;7.95;2.70;;;17.90;1.00;;;;;;5079558;28;20067;-76
2022/03/31 09:02:38;;;;;;;5.53;2.40;;;17.80;1.00;;;;;;5070008;28;20047;-76
2022/03/31 09:05:09;;;;;;;4.88;2.25;;;17.80;1.00;;;;;;5056496;28;20508;-77
2022/03/31 09:07:37;;;;;;;6.00;3.00;;;17.80;1.00;;;;;;5056958;28;20488;-78
2022/03/31 09:10:06;;;;;;;4.65;1.42;;;17.80;1.00;;;;;;5053558;28;20076;-78
2022/03/31 09:12:38;;;;;;;4.20;1.67;;;17.90;1.00;;;;;;5056903;28;20116;-77
2022/03/31 09:15:10;;;;;;;3.63;1.83;;;17.90;1.00;;;;;;5068735;28;20056;-76
2022/03/31 09:17:38;;;;;;;4.28;2.15;;;18.00;1.00;;;;;;5079497;28;20368;-77
2022/03/31 09:20:07;;;;;;;5.78;2.45;;;18.10;1.00;;;;;;5081016;28;20048;-76
2022/03/31 09:22:46;;;;;;;3.00;1.35;;;18.00;1.00;;;;;;5098394;28;20042;-76
2022/03/31 09:25:24;;;;;;;2.25;1.20;;;18.00;1.00;;;;;;5096415;28;20138;-76
2022/03/31 09:27:52;;;;;;;1.83;1.05;;;18.10;1.00;;;;;;5094821;28;20509;-76
2022/03/31 09:30:19;;;;;;;3.20;1.63;;;18.10;1.00;;;;;;5065913;28;20130;-78
2022/03/31 09:32:48;;;;;;;1.50;0.70;;;18.20;1.00;;;;;;5072917;28;20044;-77
2022/03/31 09:35:18;;;;;;;8.18;1.52;;;18.30;1.00;;;;;;5074068;28;20093;-76
2022/03/31 09:37:48;;;;;;;2.90;1.00;;;18.40;1.00;;;;;;5074052;28;20102;-77
2022/03/31 09:40:20;;;;;;;1.98;1.00;;;18.20;1.00;;;;;;5075924;28;20059;-78
2022/03/31 09:42:58;;;;;;;3.05;1.50;;;18.20;1.00;;;;;;5076402;28;20080;-76
2022/03/31 09:45:38;;;;;;;3.60;1.30;;;18.30;1.00;;;;;;5076794;28;20052;-77
2022/03/31 09:48:17;;;;;;;3.45;0.77;;;18.30;1.00;;;;;;5081573;28;20491;-75
2022/03/31 09:50:44;;;;;;;2.55;1.30;;;18.40;1.00;;;;;;5068415;28;20403;-77
2022/03/31 09:53:13;;;;;;;3.25;0.80;;;18.50;1.00;;;;;;5062807;28;20045;-76
2022/03/31 09:55:43;;;;;;;0.90;0.60;;;18.50;1.00;;;;;;5070139;28;20063;-76
2022/03/31 09:58:17;;;;;;;2.78;0.70;;;18.40;1.00;;;;;;5075108;28;20041;-78
2022/03/31 10:00:46;;;;;;;6.60;1.98;;;18.40;1.00;;;;;;5069346;28;20063;-75
2022/03/31 10:03:15;;;;;;;3.35;1.15;;;18.50;1.00;;;;;;5076436;28;20141;-76
2022/03/31 10:05:45;;;;;;;4.30;1.75;;;18.50;1.00;;;;;;5078076;28;20039;-76
2022/03/31 10:08:14;;;;;;;2.40;1.00;;;18.40;1.00;;;;;;5077710;28;20059;-76
2022/03/31 10:10:43;;;;;;;5.40;1.38;;;18.50;1.00;;;;;;5076285;28;20049;-76
2022/03/31 10:13:18;;;;;;;3.33;1.60;;;18.50;1.00;;;;;;5074645;28;20055;-79
2022/03/31 10:15:46;;;;;;;3.08;1.17;;;18.50;1.00;;;;;;5076459;28;20040;-76
2022/03/31 10:18:16;;;;;;;1.65;0.50;;;18.60;1.00;;;;;;5073501;28;20047;-77
2022/03/31 10:20:56;;;;;;;3.05;0.80;;;18.70;1.00;;;;;;5065815;28;20038;-76
2022/03/31 10:26:22;;;;;;;2.47;1.00;;;18.70;1.00;;;;;;5055761;28;20045;-76
2022/03/31 10:28:55;;;;;;;2.78;0.80;;;18.50;1.00;;;;;;5054508;28;20063;-76
2022/03/31 10:31:33;;;;;;;2.80;1.30;;;18.50;1.00;;;;;;5054630;28;20045;-76
2022/03/31 10:34:02;;;;;;;3.17;0.82;;;18.50;1.00;;;;;;5064825;28;20053;-76
2022/03/31 10:36:38;;;;;;;4.35;0.98;;;18.40;1.00;;;;;;5057337;28;20562;-77
2022/03/31 10:39:08;;;;;;;2.92;0.82;;;18.40;1.00;;;;;;5057631;28;20049;-77
2022/03/31 10:41:39;;;;;;;2.42;0.82;;;18.40;1.00;;;;;;5060409;28;20080;-77
2022/03/31 10:44:18;;;;;;;3.88;1.13;;;18.40;1.00;;;;;;5085728;28;20198;-78
2022/03/31 10:46:48;;;;;;;1.88;0.90;;;18.30;1.00;;;;;;5101704;28;20076;-76
2022/03/31 10:49:20;;;;;;;2.72;0.98;;;18.30;1.00;;;;;;5098090;28;20130;-77
2022/03/31 10:51:48;;;;;;;2.17;1.10;;;18.30;1.00;;;;;;5094822;28;20056;-76
2022/03/31 10:54:26;;;;;;;2.05;1.20;;;18.30;1.00;;;;;;5094162;28;20394;-77
2022/03/31 10:57:06;;;;;;;5.88;4.10;;;18.20;1.00;;;;;;5072786;28;20442;-80
2022/03/31 10:59:35;;;;;;;3.83;2.65;;;18.20;1.00;;;;;;5088983;28;20044;-78
2022/03/31 11:02:12;;;;;;;2.50;1.45;;;18.20;1.00;;;;;;5080822;28;20101;-77
2022/03/31 11:04:48;;;;;;;3.00;1.30;;;18.20;1.00;;;;;;5094862;28;20060;-77
2022/03/31 11:07:18;;;;;;;3.30;0.93;;;18.20;1.00;;;;;;5083238;28;20512;-77
2022/03/31 11:09:46;;;;;;;1.55;0.98;;;18.30;1.00;;;;;;5058974;28;20037;-76
2022/03/31 11:12:27;;;;;;;1.80;0.90;;;18.40;1.00;;;;;;5054303;28;20060;-76
2022/03/31 11:14:59;;;;;;;4.40;1.50;;;18.50;1.00;;;;;;5056200;28;20037;-77
2022/03/31 11:17:28;;;;;;;5.25;1.52;;;18.50;1.00;;;;;;5054805;28;20505;-76
2022/03/31 11:19:55;;;;;;;3.85;2.00;;;18.70;1.00;;;;;;5055737;28;20061;-76
2022/03/31 11:22:26;;;;;;;4.00;1.83;;;18.90;1.00;;;;;;5054391;28;20099;-76
2022/03/31 11:24:54;;;;;;;1.70;0.75;;;18.90;1.00;;;;;;5056913;28;20073;-77
2022/03/31 11:27:37;;;;;;;2.05;0.80;;;19.10;1.00;;;;;;5058364;28;20049;-76
2022/03/31 11:30:07;;;;;;;2.60;1.00;;;19.40;1.00;;;;;;5064892;28;20045;-77
2022/03/31 11:32:36;;;;;;;2.35;0.90;;;19.50;1.00;;;;;;5070710;28;20104;-78
2022/03/31 11:35:05;;;;;;;1.80;1.00;;;19.60;1.00;;;;;;5091286;28;20051;-78
2022/03/31 11:37:32;;;;;;;1.98;0.80;;;19.80;1.00;;;;;;5103119;28;20099;-77
2022/03/31 11:40:00;;;;;;;2.15;0.90;;;19.90;1.00;;;;;;5082653;28;20110;-75
2022/03/31 11:42:28;;;;;;;2.13;1.10;;;19.70;1.00;;;;;;5078434;28;20074;-77
2022/03/31 11:44:57;;;;;;;3.28;1.65;;;19.70;1.00;;;;;;5080097;28;20052;-77
2022/03/31 11:47:25;;;;;;;1.52;0.60;;;19.80;1.00;;;;;;5077676;28;20084;-76
2022/03/31 11:50:01;;;;;;;3.15;1.15;;;19.80;1.00;;;;;;5070625;28;20120;-76
2022/03/31 11:52:31;;;;;;;;;;;19.80;1.00;;;;;;5077436;28;20063;-77
2022/03/31 11:55:00;;;;;;;1.52;0.70;;;20.00;1.00;;;;;;5078104;28;20310;-77
2022/03/31 11:57:28;;;;;;;2.20;0.60;;;20.10;1.00;;;;;;5078290;28;20051;-78
2022/03/31 12:00:08;;;;;;;3.17;0.80;;;20.00;1.00;;;;;;5064061;28;20041;-78
2022/03/31 12:02:36;;;;;;;2.60;0.80;;;20.20;1.00;;;;;;5080151;28;20096;-78
2022/03/31 12:05:13;;;;;;;1.63;0.90;;;20.40;1.00;;;;;;5080293;28;20116;-77
2022/03/31 12:07:41;;;;;;;1.88;0.68;;;20.50;1.00;;;;;;5093474;28;20119;-77
2022/03/31 12:10:09;;;;;;;1.60;0.60;;;20.30;1.00;;;;;;5081756;28;20057;-76
2022/03/31 12:12:37;;;;;;;1.35;0.60;;;20.20;1.00;;;;;;5072862;28;20045;-75
2022/03/31 12:15:06;;;;;;;1.77;0.80;;;20.00;1.00;;;;;;5074175;28;20045;-75
2022/03/31 12:17:34;;;;;;;2.35;0.90;;;20.10;1.00;;;;;;5078355;28;20040;-76
2022/03/31 12:20:02;;;;;;;1.92;1.00;;;20.20;1.00;;;;;;5073549;28;20113;-75
2022/03/31 12:22:33;;;;;;;2.67;0.80;;;20.50;1.00;;;;;;5098832;28;20048;-76
2022/03/31 12:25:02;;;;;;;1.90;0.82;;;20.70;1.00;;;;;;5083923;28;20158;-77
2022/03/31 12:27:30;;;;;;;2.45;1.15;;;20.90;1.00;;;;;;5074071;28;20136;-76
2022/03/31 12:30:01;;;;;;;4.22;1.15;;;21.30;1.00;;;;;;5071391;28;20028;-77
2022/03/31 12:32:30;;;;;;;1.77;0.70;;;21.60;1.00;;;;;;5078065;28;20044;-77
2022/03/31 12:34:59;;;;;;;2.88;0.98;;;21.30;1.00;;;;;;5069088;28;20048;-77
2022/03/31 12:37:29;;;;;;;3.50;1.02;;;21.30;1.00;;;;;;5100029;28;20036;-77
2022/03/31 12:39:57;;;;;;;1.65;0.60;;;21.10;1.00;;;;;;5096693;28;20098;-76
2022/03/31 12:42:25;;;;;;;2.33;0.60;;;20.90;1.00;;;;;;5096207;28;20051;-77
2022/03/31 12:44:52;;;;;;;5.72;3.47;;;20.70;1.00;;;;;;5079041;28;20048;-76
2022/03/31 12:47:22;;;;;;;5.35;1.20;;;20.70;1.00;;;;;;5071183;28;20055;-76
2022/03/31 12:49:52;;;;;;;2.30;1.00;;;20.70;1.00;;;;;;5063480;28;20098;-76
2022/03/31 12:52:21;;;;;;;3.05;1.45;;;20.70;1.00;;;;;;5062944;28;20057;-77
2022/03/31 12:54:53;;;;;;;2.80;1.40;;;20.70;1.00;;;;;;5072507;28;20044;-76
2022/03/31 12:57:22;;;;;;;2.85;1.13;;;20.80;1.00;;;;;;5086799;28;20044;-77